createdAt,value
2022-11-15T00:01:21.090Z,51.07
2022-11-15T00:03:51.517Z,52.80
2022-11-15T00:06:21.190Z,56.27
2022-11-15T00:08:50.905Z,54.53
2022-11-15T00:11:19.192Z,51.70
2022-11-15T00:13:47.849Z,43.60
2022-11-15T00:16:16.103Z,43.70
2022-11-15T00:18:50.850Z,49.73
2022-11-15T00:21:20.941Z,46.30
2022-11-15T00:23:49.232Z,54.40
2022-11-15T00:26:17.625Z,52.30
2022-11-15T00:28:49.222Z,43.47
2022-11-15T00:31:17.452Z,47.00
2022-11-15T00:36:31.353Z,43.00
2022-11-15T00:38:59.695Z,37.17
2022-11-15T00:41:28.184Z,43.47
2022-11-15T00:43:58.795Z,55.33
2022-11-15T00:46:27.402Z,44.30
2022-11-15T00:48:55.891Z,38.03
2022-11-15T00:51:24.864Z,40.40
2022-11-15T00:53:54.666Z,40.33
2022-11-15T00:56:23.043Z,55.97
2022-11-15T00:58:52.931Z,45.50
2022-11-15T01:01:21.221Z,41.50
2022-11-15T01:03:49.528Z,41.13
2022-11-15T01:06:19.404Z,48.33
2022-11-15T01:08:48.017Z,64.23
2022-11-15T01:11:20.488Z,51.20
2022-11-15T01:13:48.774Z,45.77
2022-11-15T01:16:19.639Z,43.67
2022-11-15T01:18:48.088Z,52.93
2022-11-15T01:21:17.397Z,55.40
2022-11-15T01:23:45.912Z,48.53
2022-11-15T01:26:16.715Z,49.57
2022-11-15T01:28:48.811Z,57.27
2022-11-15T01:31:29.276Z,56.43
2022-11-15T01:33:57.531Z,62.17
2022-11-15T01:36:25.926Z,46.13
2022-11-15T01:38:57.273Z,51.47
2022-11-15T01:41:32.023Z,67.83
2022-11-15T01:44:33.591Z,54.07
2022-11-15T01:47:05.644Z,54.07
2022-11-15T01:49:41.132Z,58.20
2022-11-15T01:52:16.331Z,57.17
2022-11-15T01:54:47.870Z,69.90
2022-11-15T01:57:16.341Z,61.33
2022-11-15T01:59:49.624Z,60.10
2022-11-15T02:02:25.436Z,64.10
2022-11-15T02:04:53.975Z,58.63
2022-11-15T02:07:25.202Z,83.53
2022-11-15T02:09:53.455Z,72.53
2022-11-15T02:12:25.998Z,64.43
2022-11-15T02:14:54.995Z,83.07
2022-11-15T02:17:38.350Z,77.73
2022-11-15T02:20:49.096Z,68.27
2022-11-15T02:23:42.756Z,67.40
2022-11-15T02:26:50.241Z,59.37
2022-11-15T02:29:21.953Z,73.10
2022-11-15T02:31:53.858Z,68.63
2022-11-15T02:34:25.444Z,66.00
2022-11-15T02:37:00.050Z,65.20
2022-11-15T02:39:33.224Z,72.23
2022-11-15T02:42:04.288Z,80.13
2022-11-15T02:44:33.535Z,59.40
2022-11-15T02:47:17.020Z,77.03
2022-11-15T02:49:51.687Z,59.40
2022-11-15T02:52:24.410Z,67.83
2022-11-15T02:54:56.587Z,74.43
2022-11-15T02:57:34.553Z,86.90
2022-11-15T03:00:10.703Z,66.77
2022-11-15T03:03:08.473Z,73.33
2022-11-15T03:05:38.191Z,74.93
2022-11-15T03:08:09.008Z,81.63
2022-11-15T03:10:44.719Z,66.10
2022-11-15T03:13:18.822Z,66.03
2022-11-15T03:15:48.890Z,67.70
2022-11-15T03:18:23.951Z,74.23
2022-11-15T03:20:58.623Z,74.37
2022-11-15T03:23:27.188Z,72.73
2022-11-15T03:25:56.412Z,69.23
2022-11-15T03:28:26.030Z,69.40
2022-11-15T03:30:57.590Z,67.50
2022-11-15T03:33:27.570Z,76.97
2022-11-15T03:35:55.910Z,86.30
2022-11-15T03:38:28.075Z,79.43
2022-11-15T03:41:02.574Z,77.00
2022-11-15T03:43:33.547Z,66.93
2022-11-15T03:46:03.379Z,60.33
2022-11-15T03:48:35.740Z,75.13
2022-11-15T03:51:05.425Z,64.80
2022-11-15T03:53:34.082Z,74.37
2022-11-15T03:56:02.788Z,62.60
2022-11-15T03:58:31.510Z,58.17
2022-11-15T04:01:00.568Z,57.83
2022-11-15T04:03:28.975Z,56.87
2022-11-15T04:06:02.877Z,56.53
2022-11-15T04:08:33.078Z,54.20
2022-11-15T04:11:02.614Z,50.73
2022-11-15T04:13:31.408Z,56.50
2022-11-15T04:15:59.828Z,67.00
2022-11-15T04:18:28.207Z,55.87
2022-11-15T04:21:21.908Z,53.70
2022-11-15T04:24:06.777Z,54.13
2022-11-15T04:26:35.147Z,50.60
2022-11-15T04:29:21.109Z,43.27
2022-11-15T04:31:52.807Z,48.70
2022-11-15T04:34:21.325Z,45.67
2022-11-15T04:37:08.535Z,43.30
2022-11-15T04:39:36.845Z,46.87
2022-11-15T04:42:10.453Z,47.57
2022-11-15T04:44:38.830Z,48.47
2022-11-15T04:47:07.360Z,44.40
2022-11-15T04:49:35.636Z,43.70
2022-11-15T04:52:19.156Z,43.47
2022-11-15T04:54:57.048Z,45.93
2022-11-15T04:57:29.954Z,42.67
2022-11-15T04:59:58.235Z,44.83
2022-11-15T05:02:50.747Z,38.00
2022-11-15T05:05:18.066Z,39.30
2022-11-15T05:07:49.212Z,41.40
2022-11-15T05:10:17.597Z,41.30
2022-11-15T05:12:52.319Z,41.67
2022-11-15T05:15:26.379Z,39.00
2022-11-15T05:18:04.046Z,37.33
2022-11-15T05:20:35.777Z,44.10
2022-11-15T05:23:09.077Z,40.73
2022-11-15T05:25:39.378Z,37.17
2022-11-15T05:28:07.674Z,32.93
2022-11-15T05:30:35.871Z,35.97
2022-11-15T05:33:05.204Z,40.20
2022-11-15T05:35:35.985Z,32.23
2022-11-15T05:38:04.214Z,47.33
2022-11-15T05:40:33.854Z,38.97
2022-11-15T05:43:02.354Z,47.67
2022-11-15T05:45:31.737Z,42.67
2022-11-15T05:48:08.340Z,37.13
2022-11-15T05:50:50.204Z,36.10
2022-11-15T05:53:22.110Z,35.73
2022-11-15T05:55:52.677Z,41.90
2022-11-15T06:01:31.483Z,32.80
2022-11-15T06:04:05.766Z,32.83
2022-11-15T06:06:49.326Z,34.43
2022-11-15T06:09:21.831Z,35.07
2022-11-15T06:12:01.815Z,34.67
2022-11-15T06:14:34.161Z,39.17
2022-11-15T06:17:11.005Z,35.00
2022-11-15T06:20:03.021Z,34.10
2022-11-15T06:22:44.162Z,38.20
2022-11-15T06:25:12.961Z,37.60
2022-11-15T06:27:42.716Z,33.57
2022-11-15T06:30:12.995Z,47.57
2022-11-15T06:32:42.526Z,29.33
2022-11-15T06:35:15.674Z,31.60
2022-11-15T06:37:44.403Z,41.70
2022-11-15T06:40:13.768Z,38.03
2022-11-15T06:42:46.130Z,33.93
2022-11-15T06:45:35.196Z,34.07
2022-11-15T06:48:03.425Z,34.83
2022-11-15T06:50:31.774Z,35.23
2022-11-15T06:53:06.789Z,36.73
2022-11-15T06:55:37.442Z,36.20
2022-11-15T06:58:17.035Z,30.40
2022-11-15T07:00:48.919Z,27.77
2022-11-15T07:03:24.611Z,31.90
2022-11-15T07:05:55.703Z,30.17
2022-11-15T07:08:24.471Z,37.97
2022-11-15T07:10:52.751Z,27.87
2022-11-15T07:13:26.997Z,28.37
2022-11-15T07:15:58.191Z,32.53
2022-11-15T07:18:31.798Z,31.03
2022-11-15T07:21:04.312Z,27.20
2022-11-15T07:23:39.162Z,27.17
2022-11-15T07:26:07.607Z,27.47
2022-11-15T07:28:37.281Z,29.90
2022-11-15T07:31:06.295Z,24.57
2022-11-15T07:33:35.034Z,26.83
2022-11-15T07:36:03.835Z,27.13
2022-11-15T07:38:39.381Z,27.33
2022-11-15T07:41:16.996Z,21.30
2022-11-15T07:43:47.651Z,39.87
2022-11-15T07:46:16.365Z,30.87
2022-11-15T07:48:50.567Z,30.03
2022-11-15T07:51:19.920Z,28.60
2022-11-15T07:53:52.282Z,27.43
2022-11-15T07:56:21.719Z,25.17
2022-11-15T07:58:53.083Z,26.73
2022-11-15T08:01:22.042Z,24.67
2022-11-15T08:04:09.985Z,24.67
2022-11-15T08:06:38.242Z,26.73
2022-11-15T08:09:07.039Z,31.53
2022-11-15T08:11:37.871Z,28.73
2022-11-15T08:14:15.211Z,24.97
2022-11-15T08:16:48.264Z,29.33
2022-11-15T08:19:24.467Z,33.63
2022-11-15T08:21:52.860Z,28.97
2022-11-15T08:24:37.494Z,30.57
2022-11-15T08:27:17.940Z,29.63
2022-11-15T08:29:59.585Z,31.53
2022-11-15T08:32:32.417Z,30.27
2022-11-15T08:35:04.694Z,23.97
2022-11-15T08:37:35.698Z,22.97
2022-11-15T08:40:05.155Z,20.47
2022-11-15T08:42:34.875Z,23.07
2022-11-15T08:45:07.184Z,19.43
2022-11-15T08:47:37.522Z,17.63
2022-11-15T08:50:09.581Z,17.33
2022-11-15T08:52:42.265Z,18.13
2022-11-15T08:55:10.948Z,17.03
2022-11-15T08:57:39.136Z,17.53
2022-11-15T09:00:11.987Z,16.57
2022-11-15T09:02:43.805Z,20.13
2022-11-15T09:05:20.482Z,17.43
2022-11-15T09:07:56.368Z,17.13
2022-11-15T09:10:29.629Z,15.23
2022-11-15T09:13:03.326Z,12.87
2022-11-15T09:15:44.973Z,9.07
2022-11-15T09:18:20.976Z,11.23
2022-11-15T09:21:06.540Z,28.40
2022-11-15T09:23:39.137Z,9.07
2022-11-15T09:26:12.402Z,9.50
2022-11-15T09:28:55.810Z,10.03
2022-11-15T09:31:35.156Z,11.67
2022-11-15T09:34:03.656Z,12.17
2022-11-15T09:36:36.444Z,15.27
2022-11-15T09:39:15.646Z,9.13
2022-11-15T09:42:07.114Z,12.50
2022-11-15T09:44:48.649Z,8.03
2022-11-15T09:47:48.883Z,7.43
2022-11-15T09:50:31.731Z,10.70
2022-11-15T09:53:09.257Z,8.73
2022-11-15T09:55:56.352Z,11.20
2022-11-15T09:58:34.626Z,16.73
2022-11-15T10:01:04.201Z,7.90
2022-11-15T10:03:40.495Z,6.40
2022-11-15T10:06:22.116Z,11.90
2022-11-15T10:09:05.659Z,9.07
2022-11-15T10:11:39.819Z,7.03
2022-11-15T10:14:18.561Z,4.90
2022-11-15T10:17:33.910Z,5.67
2022-11-15T10:20:16.097Z,10.13
2022-11-15T10:23:00.115Z,10.20
2022-11-15T10:25:47.000Z,6.20
2022-11-15T10:28:39.835Z,5.40
2022-11-15T10:31:30.570Z,4.77
2022-11-15T10:34:34.063Z,9.17
2022-11-15T10:37:18.230Z,9.97
2022-11-15T10:39:49.392Z,7.17
2022-11-15T10:42:57.664Z,6.50
2022-11-15T10:45:45.264Z,6.70
2022-11-15T10:48:35.007Z,4.70
2022-11-15T10:51:10.847Z,8.17
2022-11-15T10:53:50.571Z,4.40
2022-11-15T10:56:34.397Z,4.17
2022-11-15T10:59:24.095Z,5.93
2022-11-15T11:01:58.994Z,5.73
2022-11-15T11:04:31.407Z,7.07
2022-11-15T11:07:06.034Z,3.33
2022-11-15T11:09:44.731Z,7.53
2022-11-15T11:12:21.019Z,6.17
2022-11-15T11:16:20.741Z,4.90
2022-11-15T11:18:02.713Z,10.07
2022-11-15T11:20:44.044Z,5.70
2022-11-15T11:23:38.070Z,4.23
2022-11-15T11:26:27.095Z,6.20
2022-11-15T11:29:19.674Z,7.27
2022-11-15T11:31:59.534Z,5.83
2022-11-15T11:34:53.392Z,5.80
2022-11-15T11:37:29.861Z,12.13
2022-11-15T11:40:10.963Z,6.50
2022-11-15T11:43:10.123Z,5.03
2022-11-15T11:46:18.594Z,6.20
2022-11-15T11:48:52.417Z,5.33
2022-11-15T11:51:35.098Z,5.57
2022-11-15T11:54:41.968Z,3.87
2022-11-15T11:57:23.410Z,3.00
2022-11-15T12:00:02.078Z,5.40
2022-11-15T12:02:48.699Z,4.10
2022-11-15T12:05:38.893Z,5.67
2022-11-15T12:08:30.272Z,3.80
2022-11-15T12:11:18.892Z,4.40
2022-11-15T12:14:11.395Z,5.33
2022-11-15T12:17:05.981Z,4.40
2022-11-15T12:19:34.335Z,3.23
2022-11-15T12:22:15.122Z,5.43
2022-11-15T12:25:29.131Z,2.87
2022-11-15T12:32:25.349Z,2.53
2022-11-15T12:35:54.801Z,4.20
2022-11-15T12:46:27.156Z,6.93
2022-11-15T12:49:09.112Z,7.60
2022-11-15T12:52:19.923Z,3.10
2022-11-15T12:55:36.392Z,5.43
2022-11-15T13:02:32.523Z,4.53
2022-11-15T13:05:49.350Z,5.07
2022-11-15T13:08:54.067Z,5.57
2022-11-15T13:11:56.054Z,15.20
2022-11-15T13:19:14.528Z,3.40
2022-11-15T13:26:29.263Z,4.83
2022-11-15T13:29:13.569Z,3.60
2022-11-15T13:32:20.050Z,7.20
2022-11-15T13:35:10.094Z,4.83
2022-11-15T13:38:17.429Z,1.83
2022-11-15T13:42:23.285Z,3.03
2022-11-15T13:44:33.975Z,3.43
2022-11-15T13:47:49.397Z,8.07
2022-11-15T13:50:25.843Z,4.50
2022-11-15T13:53:02.079Z,5.17
2022-11-15T13:55:50.333Z,4.13
2022-11-15T13:58:32.451Z,1.57
2022-11-15T14:01:09.296Z,3.73
2022-11-15T14:04:04.401Z,4.73
2022-11-15T14:06:38.268Z,4.20
2022-11-15T14:10:03.371Z,5.13
2022-11-15T14:12:47.218Z,3.23
2022-11-15T14:15:45.486Z,6.10
2022-11-15T14:18:55.984Z,4.03
2022-11-15T14:21:33.673Z,1.17
2022-11-15T14:24:17.177Z,3.47
2022-11-15T14:26:51.089Z,4.73
2022-11-15T14:29:42.236Z,5.87
2022-11-15T14:32:41.204Z,6.47
2022-11-15T14:35:17.421Z,3.37
2022-11-15T14:37:53.429Z,3.73
2022-11-15T14:40:35.652Z,2.93
2022-11-15T14:43:26.520Z,1.87
2022-11-15T14:45:55.076Z,3.03
2022-11-15T14:48:27.919Z,1.93
2022-11-15T14:51:05.329Z,3.53
2022-11-15T14:53:33.765Z,3.63
2022-11-15T14:56:05.541Z,3.37
2022-11-15T14:58:39.504Z,6.43
2022-11-15T15:01:19.043Z,2.83
2022-11-15T15:04:00.787Z,2.30
2022-11-15T15:06:40.525Z,3.43
2022-11-15T15:09:10.317Z,5.53
2022-11-15T15:11:51.717Z,3.03
2022-11-15T15:14:27.219Z,1.67
2022-11-15T15:16:55.499Z,6.43
2022-11-15T15:19:31.285Z,4.13
2022-11-15T15:22:02.018Z,3.47
2022-11-15T15:24:30.310Z,6.03
2022-11-15T15:26:59.888Z,11.13
2022-11-15T15:29:43.058Z,3.93
2022-11-15T15:32:14.596Z,3.17
2022-11-15T15:35:32.256Z,4.00
2022-11-15T15:42:42.086Z,4.23
2022-11-15T15:45:14.329Z,2.07
2022-11-15T15:47:42.777Z,2.90
2022-11-15T15:50:33.413Z,5.23
2022-11-15T15:53:51.721Z,7.17
2022-11-15T15:56:25.483Z,5.77
2022-11-15T15:58:57.273Z,6.00
2022-11-15T16:01:25.883Z,5.77
2022-11-15T16:03:54.022Z,3.30
2022-11-15T16:06:34.929Z,6.50
2022-11-15T16:09:18.466Z,1.30
2022-11-15T16:11:52.642Z,2.47
2022-11-15T16:14:22.583Z,3.17
2022-11-15T16:16:52.019Z,3.37
2022-11-15T16:19:20.209Z,2.17
2022-11-15T16:21:48.521Z,3.57
2022-11-15T16:24:16.819Z,1.77
2022-11-15T16:26:44.968Z,4.30
2022-11-15T16:29:13.241Z,4.70
2022-11-15T16:31:42.972Z,8.13
2022-11-15T16:34:11.257Z,3.97
2022-11-15T16:36:39.434Z,2.33
2022-11-15T16:39:19.510Z,2.83
2022-11-15T16:41:48.195Z,1.80
2022-11-15T16:44:16.429Z,4.73
2022-11-15T16:47:01.174Z,4.10
2022-11-15T16:49:32.810Z,2.53
2022-11-15T16:52:02.717Z,2.50
2022-11-15T16:54:31.022Z,1.60
2022-11-15T16:57:02.456Z,2.80
2022-11-15T16:59:37.067Z,5.97
2022-11-15T17:02:11.817Z,4.03
2022-11-15T17:04:46.294Z,3.57
2022-11-15T17:07:16.232Z,5.20
2022-11-15T17:09:44.726Z,6.17
2022-11-15T17:12:12.907Z,1.97
2022-11-15T17:14:41.277Z,2.77
2022-11-15T17:17:12.015Z,4.07
2022-11-15T17:19:40.301Z,3.57
2022-11-15T17:22:09.586Z,3.33
2022-11-15T17:24:37.856Z,5.20
2022-11-15T17:27:06.101Z,3.30
2022-11-15T17:29:39.441Z,6.83
2022-11-15T17:32:08.064Z,2.93
2022-11-15T17:34:37.766Z,4.17
2022-11-15T17:37:06.217Z,4.47
2022-11-15T17:39:41.905Z,4.13
2022-11-15T17:42:10.390Z,9.77
2022-11-15T17:44:38.688Z,3.40
2022-11-15T17:47:07.046Z,4.97
2022-11-15T17:49:39.957Z,6.60
2022-11-15T17:52:09.723Z,4.47
2022-11-15T17:54:37.945Z,4.63
2022-11-15T17:57:06.170Z,4.57
2022-11-15T17:59:34.363Z,4.17
2022-11-15T18:02:04.362Z,3.40
2022-11-15T18:04:32.629Z,3.10
2022-11-15T18:07:01.078Z,2.60
2022-11-15T18:09:34.177Z,4.93
2022-11-15T18:12:05.605Z,2.90
2022-11-15T18:14:33.792Z,4.57
2022-11-15T18:17:02.118Z,4.80
2022-11-15T18:19:32.712Z,5.17
2022-11-15T18:22:01.876Z,4.40
2022-11-15T18:24:33.541Z,4.00
2022-11-15T18:27:02.478Z,5.00
2022-11-15T18:29:30.934Z,4.77
2022-11-15T18:32:00.037Z,3.43
2022-11-15T18:37:56.057Z,5.00
2022-11-15T18:40:25.889Z,7.27
2022-11-15T18:42:57.259Z,5.20
2022-11-15T18:45:25.754Z,3.63
2022-11-15T18:47:53.914Z,3.40
2022-11-15T18:50:25.502Z,5.30
2022-11-15T18:53:01.194Z,4.20
2022-11-15T18:55:30.832Z,4.47
2022-11-15T18:57:59.123Z,7.70
2022-11-15T19:00:27.519Z,4.07
2022-11-15T19:02:55.932Z,3.50
2022-11-15T19:05:31.617Z,6.70
2022-11-15T19:07:59.824Z,4.97
2022-11-15T19:10:28.300Z,5.50
2022-11-15T19:13:01.044Z,7.00
2022-11-15T19:15:29.190Z,7.20
2022-11-15T19:17:57.394Z,7.47
2022-11-15T19:20:29.650Z,7.47
2022-11-15T19:22:59.072Z,7.17
2022-11-15T19:25:28.918Z,7.30
2022-11-15T19:27:57.199Z,10.80
2022-11-15T19:30:29.387Z,7.23
2022-11-15T19:32:58.288Z,6.90
2022-11-15T19:35:27.192Z,6.47
2022-11-15T19:37:55.380Z,5.77
2022-11-15T19:40:23.660Z,11.03
2022-11-15T19:42:52.117Z,10.43
2022-11-15T19:45:20.275Z,8.53
2022-11-15T19:47:51.277Z,9.53
2022-11-15T19:50:19.614Z,7.90
2022-11-15T19:52:54.213Z,8.27
2022-11-15T19:55:22.393Z,8.97
2022-11-15T19:57:50.520Z,8.30
2022-11-15T20:00:20.070Z,9.47
2022-11-15T20:02:57.547Z,8.73
2022-11-15T20:05:26.307Z,8.23
2022-11-15T20:07:54.604Z,8.07
2022-11-15T20:10:22.980Z,6.37
2022-11-15T20:12:52.604Z,11.97
2022-11-15T20:15:21.069Z,7.67
2022-11-15T20:17:50.694Z,10.43
2022-11-15T20:20:18.915Z,8.30
2022-11-15T20:22:47.569Z,8.97
2022-11-15T20:25:18.841Z,8.90
2022-11-15T20:27:47.026Z,10.40
2022-11-15T20:30:15.509Z,9.80
2022-11-15T20:32:43.762Z,9.47
2022-11-15T20:35:18.243Z,11.57
2022-11-15T20:37:52.299Z,8.70
2022-11-15T20:40:20.528Z,10.83
2022-11-15T20:42:50.474Z,11.37
2022-11-15T20:45:18.764Z,14.20
2022-11-15T20:47:50.845Z,9.67
2022-11-15T20:50:40.965Z,8.53
2022-11-15T20:53:12.374Z,9.30
2022-11-15T20:55:41.684Z,8.90
2022-11-15T20:58:10.676Z,10.60
2022-11-15T21:00:41.769Z,8.80
2022-11-15T21:03:11.801Z,12.37
2022-11-15T21:05:42.119Z,10.57
2022-11-15T21:08:11.797Z,8.93
2022-11-15T21:10:57.452Z,10.00
2022-11-15T21:13:31.243Z,12.77
2022-11-15T21:15:59.424Z,10.03
2022-11-15T21:18:27.614Z,10.47
2022-11-15T21:21:05.089Z,10.77
2022-11-15T21:23:38.244Z,11.00
2022-11-15T21:26:06.689Z,11.17
2022-11-15T21:28:35.269Z,9.13
2022-11-15T21:31:03.984Z,13.57
2022-11-15T21:33:32.152Z,8.47
2022-11-15T21:36:01.817Z,9.47
2022-11-15T21:38:30.494Z,9.73
2022-11-15T21:40:59.291Z,10.57
2022-11-15T21:43:27.555Z,9.10
2022-11-15T21:46:00.357Z,8.97
2022-11-15T21:48:29.167Z,11.10
2022-11-15T21:50:58.037Z,9.13
2022-11-15T21:53:27.743Z,9.93
2022-11-15T21:56:02.196Z,12.37
2022-11-15T21:58:31.383Z,9.30
2022-11-15T22:01:18.145Z,10.00
2022-11-15T22:03:46.402Z,10.90
2022-11-15T22:06:18.120Z,11.53
2022-11-15T22:08:48.482Z,12.53
2022-11-15T22:11:17.258Z,13.13
2022-11-15T22:13:45.618Z,19.00
2022-11-15T22:16:15.529Z,9.90
2022-11-15T22:18:43.836Z,12.40
2022-11-15T22:21:12.901Z,10.27
2022-11-15T22:23:41.374Z,11.53
2022-11-15T22:26:17.335Z,11.20
2022-11-15T22:28:47.764Z,10.10
2022-11-15T22:31:17.034Z,13.27
2022-11-15T22:33:45.383Z,10.57
2022-11-15T22:36:14.017Z,13.90
2022-11-15T22:38:42.639Z,12.33
2022-11-15T22:41:14.045Z,11.10
2022-11-15T22:43:42.276Z,10.33
2022-11-15T22:46:10.793Z,10.83
2022-11-15T22:48:39.617Z,13.07
2022-11-15T22:51:08.552Z,12.37
2022-11-15T22:53:36.717Z,12.43
2022-11-15T22:56:06.115Z,10.87
2022-11-15T22:58:38.992Z,10.13
2022-11-15T23:01:07.272Z,14.33
2022-11-15T23:03:36.141Z,11.43
2022-11-15T23:06:05.269Z,9.93
2022-11-15T23:08:33.758Z,11.53
2022-11-15T23:11:19.662Z,12.40
2022-11-15T23:13:51.113Z,10.57
2022-11-15T23:16:26.030Z,13.17
2022-11-15T23:18:57.307Z,11.53
2022-11-15T23:21:43.876Z,12.80
2022-11-15T23:24:12.876Z,12.47
2022-11-15T23:26:41.185Z,11.90
2022-11-15T23:29:12.916Z,12.13
2022-11-15T23:32:02.097Z,13.07
2022-11-15T23:34:31.259Z,11.10
2022-11-15T23:36:59.536Z,13.57
2022-11-15T23:39:32.696Z,11.67
2022-11-15T23:42:04.569Z,11.63
2022-11-15T23:44:38.252Z,13.87
2022-11-15T23:47:06.558Z,13.07
2022-11-15T23:49:46.989Z,15.67
2022-11-15T23:52:15.796Z,12.83
2022-11-15T23:54:44.070Z,11.67
2022-11-15T23:57:13.033Z,11.90
2022-11-15T23:59:45.730Z,10.90
